sensor_id;sensor_type;location;lat;lon;timestamp;temperature;humidity
34985;DHT22;21190;58.750;17.004;2024-02-26T00:01:11;3.00;99.90
34985;DHT22;21190;58.750;17.004;2024-02-26T00:03:38;3.00;99.90
34985;DHT22;21190;58.750;17.004;2024-02-26T00:06:08;3.00;99.90
34985;DHT22;21190;58.750;17.004;2024-02-26T00:08:36;3.10;99.90
34985;DHT22;21190;58.750;17.004;2024-02-26T00:11:03;3.10;99.90
34985;DHT22;21190;58.750;17.004;2024-02-26T00:13:30;3.00;99.90
34985;DHT22;21190;58.750;17.004;2024-02-26T00:15:57;3.00;99.90
34985;DHT22;21190;58.750;17.004;2024-02-26T00:18:24;3.10;99.90
34985;DHT22;21190;58.750;17.004;2024-02-26T00:20:52;3.10;99.90
34985;DHT22;21190;58.750;17.004;2024-02-26T00:23:19;3.00;99.90
34985;DHT22;21190;58.750;17.004;2024-02-26T00:25:46;3.00;99.90
34985;DHT22;21190;58.750;17.004;2024-02-26T00:28:13;3.00;99.90
34985;DHT22;21190;58.750;17.004;2024-02-26T00:30:41;3.10;99.90
34985;DHT22;21190;58.750;17.004;2024-02-26T00:33:08;3.10;99.90
34985;DHT22;21190;58.750;17.004;2024-02-26T00:35:35;3.10;99.90
34985;DHT22;21190;58.750;17.004;2024-02-26T00:38:02;3.10;99.90
34985;DHT22;21190;58.750;17.004;2024-02-26T00:40:30;3.10;99.90
34985;DHT22;21190;58.750;17.004;2024-02-26T00:42:57;3.00;99.90
34985;DHT22;21190;58.750;17.004;2024-02-26T00:45:25;2.90;99.90
34985;DHT22;21190;58.750;17.004;2024-02-26T00:47:52;2.80;99.90
34985;DHT22;21190;58.750;17.004;2024-02-26T00:50:19;2.70;99.90
34985;DHT22;21190;58.750;17.004;2024-02-26T00:52:47;2.70;99.90
34985;DHT22;21190;58.750;17.004;2024-02-26T00:55:14;2.70;99.90
34985;DHT22;21190;58.750;17.004;2024-02-26T00:57:41;2.70;99.90
34985;DHT22;21190;58.750;17.004;2024-02-26T01:00:09;2.70;99.90
34985;DHT22;21190;58.750;17.004;2024-02-26T01:02:36;2.60;99.90
34985;DHT22;21190;58.750;17.004;2024-02-26T01:05:06;2.70;99.90
34985;DHT22;21190;58.750;17.004;2024-02-26T01:07:33;2.60;99.90
34985;DHT22;21190;58.750;17.004;2024-02-26T01:10:03;2.60;99.90
34985;DHT22;21190;58.750;17.004;2024-02-26T01:12:33;2.70;99.90
34985;DHT22;21190;58.750;17.004;2024-02-26T01:15:04;2.60;99.90
34985;DHT22;21190;58.750;17.004;2024-02-26T01:17:32;2.70;99.90
34985;DHT22;21190;58.750;17.004;2024-02-26T01:19:59;2.70;99.90
34985;DHT22;21190;58.750;17.004;2024-02-26T01:22:27;2.70;99.90
34985;DHT22;21190;58.750;17.004;2024-02-26T01:24:54;2.70;99.90
34985;DHT22;21190;58.750;17.004;2024-02-26T01:27:21;2.70;99.90
34985;DHT22;21190;58.750;17.004;2024-02-26T01:29:53;2.70;99.90
34985;DHT22;21190;58.750;17.004;2024-02-26T01:32:20;2.80;99.90
34985;DHT22;21190;58.750;17.004;2024-02-26T01:34:47;2.90;99.90
34985;DHT22;21190;58.750;17.004;2024-02-26T01:37:15;2.90;99.90
34985;DHT22;21190;58.750;17.004;2024-02-26T01:39:42;2.90;99.90
34985;DHT22;21190;58.750;17.004;2024-02-26T01:42:09;2.90;99.90
34985;DHT22;21190;58.750;17.004;2024-02-26T01:44:37;2.90;99.90
34985;DHT22;21190;58.750;17.004;2024-02-26T01:47:07;2.80;99.90
34985;DHT22;21190;58.750;17.004;2024-02-26T01:49:36;2.90;99.90
34985;DHT22;21190;58.750;17.004;2024-02-26T01:52:04;2.90;99.90
34985;DHT22;21190;58.750;17.004;2024-02-26T01:54:35;2.90;99.90
34985;DHT22;21190;58.750;17.004;2024-02-26T01:57:05;2.90;99.90
34985;DHT22;21190;58.750;17.004;2024-02-26T01:59:34;2.90;99.90
34985;DHT22;21190;58.750;17.004;2024-02-26T02:02:04;3.00;99.90
34985;DHT22;21190;58.750;17.004;2024-02-26T02:04:32;3.10;99.90
34985;DHT22;21190;58.750;17.004;2024-02-26T02:07:00;3.00;99.90
34985;DHT22;21190;58.750;17.004;2024-02-26T02:09:28;3.00;99.90
34985;DHT22;21190;58.750;17.004;2024-02-26T02:11:55;3.00;99.90
34985;DHT22;21190;58.750;17.004;2024-02-26T02:14:23;3.00;99.90
34985;DHT22;21190;58.750;17.004;2024-02-26T02:16:50;3.00;99.90
34985;DHT22;21190;58.750;17.004;2024-02-26T02:19:18;3.00;99.90
34985;DHT22;21190;58.750;17.004;2024-02-26T02:21:45;3.00;99.90
34985;DHT22;21190;58.750;17.004;2024-02-26T02:24:12;3.00;99.90
34985;DHT22;21190;58.750;17.004;2024-02-26T02:26:39;3.00;99.90
34985;DHT22;21190;58.750;17.004;2024-02-26T02:29:07;3.00;99.90
34985;DHT22;21190;58.750;17.004;2024-02-26T02:31:36;3.00;99.90
34985;DHT22;21190;58.750;17.004;2024-02-26T02:34:03;3.00;99.90
34985;DHT22;21190;58.750;17.004;2024-02-26T02:36:31;2.90;99.90
34985;DHT22;21190;58.750;17.004;2024-02-26T02:38:58;3.00;99.90
34985;DHT22;21190;58.750;17.004;2024-02-26T02:41:25;3.00;99.90
34985;DHT22;21190;58.750;17.004;2024-02-26T02:43:54;2.90;99.90
34985;DHT22;21190;58.750;17.004;2024-02-26T02:46:21;3.00;99.90
34985;DHT22;21190;58.750;17.004;2024-02-26T02:48:48;3.00;99.90
34985;DHT22;21190;58.750;17.004;2024-02-26T02:51:15;3.00;99.90
34985;DHT22;21190;58.750;17.004;2024-02-26T02:53:43;3.00;99.90
34985;DHT22;21190;58.750;17.004;2024-02-26T02:56:10;3.10;99.90
34985;DHT22;21190;58.750;17.004;2024-02-26T02:58:37;3.10;99.90
34985;DHT22;21190;58.750;17.004;2024-02-26T03:01:04;3.00;99.90
34985;DHT22;21190;58.750;17.004;2024-02-26T03:03:31;3.00;99.90
34985;DHT22;21190;58.750;17.004;2024-02-26T03:05:59;3.00;99.90
34985;DHT22;21190;58.750;17.004;2024-02-26T03:08:26;3.00;99.90
34985;DHT22;21190;58.750;17.004;2024-02-26T03:10:53;3.10;99.90
34985;DHT22;21190;58.750;17.004;2024-02-26T03:13:20;3.10;99.90
34985;DHT22;21190;58.750;17.004;2024-02-26T03:15:48;3.10;99.90
34985;DHT22;21190;58.750;17.004;2024-02-26T03:18:15;3.10;99.90
34985;DHT22;21190;58.750;17.004;2024-02-26T03:20:43;3.10;99.90
34985;DHT22;21190;58.750;17.004;2024-02-26T03:23:10;3.10;99.90
34985;DHT22;21190;58.750;17.004;2024-02-26T03:25:41;3.20;99.90
34985;DHT22;21190;58.750;17.004;2024-02-26T03:28:08;3.20;99.90
34985;DHT22;21190;58.750;17.004;2024-02-26T03:30:35;3.20;99.90
34985;DHT22;21190;58.750;17.004;2024-02-26T03:33:02;3.20;99.90
34985;DHT22;21190;58.750;17.004;2024-02-26T03:35:30;3.20;99.90
34985;DHT22;21190;58.750;17.004;2024-02-26T03:37:57;3.10;99.90
34985;DHT22;21190;58.750;17.004;2024-02-26T03:40:24;3.10;99.90
34985;DHT22;21190;58.750;17.004;2024-02-26T03:42:51;3.10;99.90
34985;DHT22;21190;58.750;17.004;2024-02-26T03:45:20;3.20;99.90
34985;DHT22;21190;58.750;17.004;2024-02-26T03:47:48;3.20;99.90
34985;DHT22;21190;58.750;17.004;2024-02-26T03:50:16;3.20;99.90
34985;DHT22;21190;58.750;17.004;2024-02-26T03:52:43;3.30;99.90
34985;DHT22;21190;58.750;17.004;2024-02-26T03:55:10;3.30;99.90
34985;DHT22;21190;58.750;17.004;2024-02-26T03:57:37;3.30;99.90
34985;DHT22;21190;58.750;17.004;2024-02-26T04:00:05;3.30;99.90
34985;DHT22;21190;58.750;17.004;2024-02-26T04:02:33;3.40;99.90
34985;DHT22;21190;58.750;17.004;2024-02-26T04:05:00;3.40;99.90
34985;DHT22;21190;58.750;17.004;2024-02-26T04:07:28;3.30;99.90
34985;DHT22;21190;58.750;17.004;2024-02-26T04:09:55;3.30;99.90
34985;DHT22;21190;58.750;17.004;2024-02-26T04:12:22;3.30;99.90
34985;DHT22;21190;58.750;17.004;2024-02-26T04:14:49;3.30;99.90
34985;DHT22;21190;58.750;17.004;2024-02-26T04:17:16;3.30;99.90
34985;DHT22;21190;58.750;17.004;2024-02-26T04:19:43;3.30;99.90
34985;DHT22;21190;58.750;17.004;2024-02-26T04:22:13;3.30;99.90
34985;DHT22;21190;58.750;17.004;2024-02-26T04:24:41;3.20;99.90
34985;DHT22;21190;58.750;17.004;2024-02-26T04:27:09;3.20;99.90
34985;DHT22;21190;58.750;17.004;2024-02-26T04:29:36;3.10;99.90
34985;DHT22;21190;58.750;17.004;2024-02-26T04:32:03;3.10;99.90
34985;DHT22;21190;58.750;17.004;2024-02-26T04:34:30;3.10;99.90
34985;DHT22;21190;58.750;17.004;2024-02-26T04:36:57;3.10;99.90
34985;DHT22;21190;58.750;17.004;2024-02-26T04:39:25;3.10;99.90
34985;DHT22;21190;58.750;17.004;2024-02-26T04:41:53;3.20;99.90
34985;DHT22;21190;58.750;17.004;2024-02-26T04:44:20;3.10;99.90
34985;DHT22;21190;58.750;17.004;2024-02-26T04:46:47;3.10;99.90
34985;DHT22;21190;58.750;17.004;2024-02-26T04:49:14;3.10;99.90
34985;DHT22;21190;58.750;17.004;2024-02-26T04:51:41;3.10;99.90
34985;DHT22;21190;58.750;17.004;2024-02-26T04:54:08;3.00;99.90
34985;DHT22;21190;58.750;17.004;2024-02-26T04:56:36;3.10;99.90
34985;DHT22;21190;58.750;17.004;2024-02-26T04:59:03;3.10;99.90
34985;DHT22;21190;58.750;17.004;2024-02-26T05:01:30;3.10;99.90
34985;DHT22;21190;58.750;17.004;2024-02-26T05:03:58;3.10;99.90
34985;DHT22;21190;58.750;17.004;2024-02-26T05:06:25;3.00;99.90
34985;DHT22;21190;58.750;17.004;2024-02-26T05:08:52;3.10;99.90
34985;DHT22;21190;58.750;17.004;2024-02-26T05:11:20;3.20;99.90
34985;DHT22;21190;58.750;17.004;2024-02-26T05:13:48;3.20;99.90
34985;DHT22;21190;58.750;17.004;2024-02-26T05:16:15;3.30;99.90
34985;DHT22;21190;58.750;17.004;2024-02-26T05:18:42;3.20;99.90
34985;DHT22;21190;58.750;17.004;2024-02-26T05:21:09;3.20;99.90
34985;DHT22;21190;58.750;17.004;2024-02-26T05:23:37;3.20;99.90
34985;DHT22;21190;58.750;17.004;2024-02-26T05:26:04;3.20;99.90
34985;DHT22;21190;58.750;17.004;2024-02-26T05:28:31;3.20;99.90
34985;DHT22;21190;58.750;17.004;2024-02-26T05:30:58;3.10;99.90
34985;DHT22;21190;58.750;17.004;2024-02-26T05:33:25;3.10;99.90
34985;DHT22;21190;58.750;17.004;2024-02-26T05:35:53;3.20;99.90
34985;DHT22;21190;58.750;17.004;2024-02-26T05:38:20;3.20;99.90
34985;DHT22;21190;58.750;17.004;2024-02-26T05:40:47;3.20;99.90
34985;DHT22;21190;58.750;17.004;2024-02-26T05:43:14;3.20;99.90
34985;DHT22;21190;58.750;17.004;2024-02-26T05:45:44;3.20;99.90
34985;DHT22;21190;58.750;17.004;2024-02-26T05:48:12;3.20;99.90
34985;DHT22;21190;58.750;17.004;2024-02-26T05:50:42;3.30;99.90
34985;DHT22;21190;58.750;17.004;2024-02-26T05:53:10;3.40;99.90
34985;DHT22;21190;58.750;17.004;2024-02-26T05:55:37;3.50;99.90
34985;DHT22;21190;58.750;17.004;2024-02-26T05:58:04;3.50;99.90
34985;DHT22;21190;58.750;17.004;2024-02-26T06:00:32;3.50;99.90
34985;DHT22;21190;58.750;17.004;2024-02-26T06:02:59;3.50;99.90
34985;DHT22;21190;58.750;17.004;2024-02-26T06:05:26;3.50;99.90
34985;DHT22;21190;58.750;17.004;2024-02-26T06:07:53;3.50;99.90
34985;DHT22;21190;58.750;17.004;2024-02-26T06:10:21;3.50;99.90
34985;DHT22;21190;58.750;17.004;2024-02-26T06:12:48;3.50;99.90
34985;DHT22;21190;58.750;17.004;2024-02-26T06:15:15;3.50;99.90
34985;DHT22;21190;58.750;17.004;2024-02-26T06:17:42;3.50;99.90
34985;DHT22;21190;58.750;17.004;2024-02-26T06:20:10;3.50;99.90
34985;DHT22;21190;58.750;17.004;2024-02-26T06:22:40;3.50;99.90
34985;DHT22;21190;58.750;17.004;2024-02-26T06:25:08;3.60;99.90
34985;DHT22;21190;58.750;17.004;2024-02-26T06:27:35;3.60;99.90
34985;DHT22;21190;58.750;17.004;2024-02-26T06:30:02;3.70;99.90
34985;DHT22;21190;58.750;17.004;2024-02-26T06:32:30;3.70;99.90
34985;DHT22;21190;58.750;17.004;2024-02-26T06:34:57;3.70;99.90
34985;DHT22;21190;58.750;17.004;2024-02-26T06:37:24;3.70;99.90
34985;DHT22;21190;58.750;17.004;2024-02-26T06:39:52;3.60;99.90
34985;DHT22;21190;58.750;17.004;2024-02-26T06:42:19;3.70;99.90
34985;DHT22;21190;58.750;17.004;2024-02-26T06:44:46;3.70;99.90
34985;DHT22;21190;58.750;17.004;2024-02-26T06:47:14;3.60;99.90
34985;DHT22;21190;58.750;17.004;2024-02-26T06:49:41;3.70;99.90
34985;DHT22;21190;58.750;17.004;2024-02-26T06:52:08;3.60;99.90
34985;DHT22;21190;58.750;17.004;2024-02-26T06:54:35;3.70;99.90
34985;DHT22;21190;58.750;17.004;2024-02-26T06:57:03;3.70;99.90
34985;DHT22;21190;58.750;17.004;2024-02-26T06:59:30;3.70;99.90
34985;DHT22;21190;58.750;17.004;2024-02-26T07:01:57;3.70;99.90
34985;DHT22;21190;58.750;17.004;2024-02-26T07:04:24;3.90;99.90
34985;DHT22;21190;58.750;17.004;2024-02-26T07:06:51;3.90;99.90
34985;DHT22;21190;58.750;17.004;2024-02-26T07:09:18;3.90;99.90
34985;DHT22;21190;58.750;17.004;2024-02-26T07:11:46;4.00;99.90
34985;DHT22;21190;58.750;17.004;2024-02-26T07:14:13;4.00;99.90
34985;DHT22;21190;58.750;17.004;2024-02-26T07:16:40;4.00;99.90
34985;DHT22;21190;58.750;17.004;2024-02-26T07:19:07;3.90;99.90
34985;DHT22;21190;58.750;17.004;2024-02-26T07:21:34;3.90;99.90
34985;DHT22;21190;58.750;17.004;2024-02-26T07:24:02;3.90;99.90
34985;DHT22;21190;58.750;17.004;2024-02-26T07:26:29;3.90;99.90
34985;DHT22;21190;58.750;17.004;2024-02-26T07:28:57;3.90;99.90
34985;DHT22;21190;58.750;17.004;2024-02-26T07:31:25;4.00;99.90
34985;DHT22;21190;58.750;17.004;2024-02-26T07:33:52;4.10;99.90
34985;DHT22;21190;58.750;17.004;2024-02-26T07:36:19;4.10;99.90
34985;DHT22;21190;58.750;17.004;2024-02-26T07:38:47;4.20;99.90
34985;DHT22;21190;58.750;17.004;2024-02-26T07:41:16;4.20;99.90
34985;DHT22;21190;58.750;17.004;2024-02-26T07:43:43;4.20;99.90
34985;DHT22;21190;58.750;17.004;2024-02-26T07:46:13;4.20;99.90
34985;DHT22;21190;58.750;17.004;2024-02-26T07:48:40;4.20;99.90
34985;DHT22;21190;58.750;17.004;2024-02-26T07:51:09;4.20;99.90
34985;DHT22;21190;58.750;17.004;2024-02-26T07:53:36;4.20;99.90
34985;DHT22;21190;58.750;17.004;2024-02-26T07:56:03;4.30;99.90
34985;DHT22;21190;58.750;17.004;2024-02-26T07:58:31;4.20;99.90
34985;DHT22;21190;58.750;17.004;2024-02-26T08:00:59;4.30;99.90
34985;DHT22;21190;58.750;17.004;2024-02-26T08:03:26;4.20;99.90
34985;DHT22;21190;58.750;17.004;2024-02-26T08:05:54;4.30;99.90
34985;DHT22;21190;58.750;17.004;2024-02-26T08:08:22;4.30;99.90
34985;DHT22;21190;58.750;17.004;2024-02-26T08:10:49;4.40;99.90
34985;DHT22;21190;58.750;17.004;2024-02-26T08:13:16;4.30;99.90
34985;DHT22;21190;58.750;17.004;2024-02-26T08:15:44;4.40;99.90
34985;DHT22;21190;58.750;17.004;2024-02-26T08:18:11;4.30;99.90
34985;DHT22;21190;58.750;17.004;2024-02-26T08:20:38;4.40;99.90
34985;DHT22;21190;58.750;17.004;2024-02-26T08:23:05;4.40;99.90
34985;DHT22;21190;58.750;17.004;2024-02-26T08:25:32;4.40;99.90
34985;DHT22;21190;58.750;17.004;2024-02-26T08:27:59;4.50;99.90
34985;DHT22;21190;58.750;17.004;2024-02-26T08:30:27;4.50;99.90
34985;DHT22;21190;58.750;17.004;2024-02-26T08:32:54;4.50;99.90
34985;DHT22;21190;58.750;17.004;2024-02-26T08:35:21;4.60;99.90
34985;DHT22;21190;58.750;17.004;2024-02-26T08:37:49;4.60;99.90
34985;DHT22;21190;58.750;17.004;2024-02-26T08:40:16;4.60;99.90
34985;DHT22;21190;58.750;17.004;2024-02-26T08:42:43;4.70;99.90
34985;DHT22;21190;58.750;17.004;2024-02-26T08:45:13;4.70;99.90
34985;DHT22;21190;58.750;17.004;2024-02-26T08:47:40;4.80;99.90
34985;DHT22;21190;58.750;17.004;2024-02-26T08:50:08;4.80;99.90
34985;DHT22;21190;58.750;17.004;2024-02-26T08:52:37;4.80;99.90
34985;DHT22;21190;58.750;17.004;2024-02-26T08:55:04;4.80;99.90
34985;DHT22;21190;58.750;17.004;2024-02-26T08:57:33;4.90;99.90
34985;DHT22;21190;58.750;17.004;2024-02-26T09:00:04;5.00;99.90
34985;DHT22;21190;58.750;17.004;2024-02-26T09:02:32;5.00;99.90
34985;DHT22;21190;58.750;17.004;2024-02-26T09:04:59;5.00;99.90
34985;DHT22;21190;58.750;17.004;2024-02-26T09:07:27;5.00;99.90
34985;DHT22;21190;58.750;17.004;2024-02-26T09:09:54;5.00;99.90
34985;DHT22;21190;58.750;17.004;2024-02-26T09:12:21;5.00;99.90
34985;DHT22;21190;58.750;17.004;2024-02-26T09:14:49;5.00;99.90
34985;DHT22;21190;58.750;17.004;2024-02-26T09:17:16;5.10;99.90
34985;DHT22;21190;58.750;17.004;2024-02-26T09:19:43;5.10;99.90
34985;DHT22;21190;58.750;17.004;2024-02-26T09:22:11;5.20;99.90
34985;DHT22;21190;58.750;17.004;2024-02-26T09:24:41;5.20;99.90
34985;DHT22;21190;58.750;17.004;2024-02-26T09:27:08;5.30;99.90
34985;DHT22;21190;58.750;17.004;2024-02-26T09:29:35;5.30;99.90
34985;DHT22;21190;58.750;17.004;2024-02-26T09:32:03;5.30;99.90
34985;DHT22;21190;58.750;17.004;2024-02-26T09:34:30;5.40;99.90
34985;DHT22;21190;58.750;17.004;2024-02-26T09:36:57;5.50;99.90
34985;DHT22;21190;58.750;17.004;2024-02-26T09:39:38;5.60;99.90
34985;DHT22;21190;58.750;17.004;2024-02-26T09:42:05;5.60;99.90
34985;DHT22;21190;58.750;17.004;2024-02-26T09:44:40;5.60;99.90
34985;DHT22;21190;58.750;17.004;2024-02-26T09:47:11;5.70;99.90
34985;DHT22;21190;58.750;17.004;2024-02-26T09:49:38;5.70;99.90
34985;DHT22;21190;58.750;17.004;2024-02-26T09:52:06;5.80;99.90
34985;DHT22;21190;58.750;17.004;2024-02-26T09:54:35;5.90;99.90
34985;DHT22;21190;58.750;17.004;2024-02-26T09:57:03;5.90;99.90
34985;DHT22;21190;58.750;17.004;2024-02-26T09:59:39;6.00;99.90
34985;DHT22;21190;58.750;17.004;2024-02-26T10:02:14;6.00;99.90
34985;DHT22;21190;58.750;17.004;2024-02-26T10:04:42;6.10;99.90
34985;DHT22;21190;58.750;17.004;2024-02-26T10:07:16;6.10;99.90
34985;DHT22;21190;58.750;17.004;2024-02-26T10:09:43;6.20;99.90
34985;DHT22;21190;58.750;17.004;2024-02-26T10:12:11;6.20;99.90
34985;DHT22;21190;58.750;17.004;2024-02-26T10:14:39;6.20;99.90
34985;DHT22;21190;58.750;17.004;2024-02-26T10:17:09;6.30;99.90
34985;DHT22;21190;58.750;17.004;2024-02-26T10:19:37;6.30;99.90
34985;DHT22;21190;58.750;17.004;2024-02-26T10:22:05;6.30;99.90
34985;DHT22;21190;58.750;17.004;2024-02-26T10:24:32;6.50;99.90
34985;DHT22;21190;58.750;17.004;2024-02-26T10:27:02;6.60;99.90
34985;DHT22;21190;58.750;17.004;2024-02-26T10:29:29;6.60;99.90
34985;DHT22;21190;58.750;17.004;2024-02-26T10:31:57;6.60;99.90
34985;DHT22;21190;58.750;17.004;2024-02-26T10:34:24;6.60;99.90
34985;DHT22;21190;58.750;17.004;2024-02-26T10:36:53;6.70;99.90
34985;DHT22;21190;58.750;17.004;2024-02-26T10:39:21;6.70;99.90
34985;DHT22;21190;58.750;17.004;2024-02-26T10:41:49;6.70;99.90
34985;DHT22;21190;58.750;17.004;2024-02-26T10:44:17;6.80;99.90
34985;DHT22;21190;58.750;17.004;2024-02-26T10:46:48;6.80;99.90
34985;DHT22;21190;58.750;17.004;2024-02-26T10:49:19;6.80;99.90
34985;DHT22;21190;58.750;17.004;2024-02-26T10:51:54;6.70;99.90
34985;DHT22;21190;58.750;17.004;2024-02-26T10:54:25;6.70;99.90
34985;DHT22;21190;58.750;17.004;2024-02-26T10:56:56;6.70;99.90
34985;DHT22;21190;58.750;17.004;2024-02-26T10:59:24;6.80;99.90
34985;DHT22;21190;58.750;17.004;2024-02-26T11:01:51;6.80;99.90
34985;DHT22;21190;58.750;17.004;2024-02-26T11:04:19;6.80;99.90
34985;DHT22;21190;58.750;17.004;2024-02-26T11:06:47;6.80;99.90
34985;DHT22;21190;58.750;17.004;2024-02-26T11:09:17;6.70;99.90
34985;DHT22;21190;58.750;17.004;2024-02-26T11:11:47;6.70;99.90
34985;DHT22;21190;58.750;17.004;2024-02-26T11:14:15;6.60;99.90
34985;DHT22;21190;58.750;17.004;2024-02-26T11:16:43;6.50;99.90
34985;DHT22;21190;58.750;17.004;2024-02-26T11:19:11;6.40;99.90
34985;DHT22;21190;58.750;17.004;2024-02-26T11:21:41;6.30;99.90
34985;DHT22;21190;58.750;17.004;2024-02-26T11:24:14;6.20;99.90
34985;DHT22;21190;58.750;17.004;2024-02-26T11:27:00;6.10;99.90
34985;DHT22;21190;58.750;17.004;2024-02-26T11:29:34;5.80;99.90
34985;DHT22;21190;58.750;17.004;2024-02-26T11:32:05;5.50;99.90
34985;DHT22;21190;58.750;17.004;2024-02-26T11:34:33;5.30;99.90
34985;DHT22;21190;58.750;17.004;2024-02-26T11:37:11;5.10;99.90
34985;DHT22;21190;58.750;17.004;2024-02-26T11:39:42;4.90;99.90
34985;DHT22;21190;58.750;17.004;2024-02-26T11:42:09;4.80;99.90
34985;DHT22;21190;58.750;17.004;2024-02-26T11:44:37;4.60;99.90
34985;DHT22;21190;58.750;17.004;2024-02-26T11:47:21;4.50;99.90
34985;DHT22;21190;58.750;17.004;2024-02-26T11:49:49;4.60;99.90
34985;DHT22;21190;58.750;17.004;2024-02-26T11:52:17;4.60;99.90
34985;DHT22;21190;58.750;17.004;2024-02-26T11:54:52;4.50;99.90
34985;DHT22;21190;58.750;17.004;2024-02-26T11:59:48;4.30;99.90
34985;DHT22;21190;58.750;17.004;2024-02-26T12:05:13;4.10;99.90
34985;DHT22;21190;58.750;17.004;2024-02-26T12:07:48;4.00;99.90
34985;DHT22;21190;58.750;17.004;2024-02-26T12:10:31;3.80;99.90
34985;DHT22;21190;58.750;17.004;2024-02-26T12:13:07;3.70;99.90
34985;DHT22;21190;58.750;17.004;2024-02-26T12:15:47;3.70;99.90
34985;DHT22;21190;58.750;17.004;2024-02-26T12:18:22;3.70;99.90
34985;DHT22;21190;58.750;17.004;2024-02-26T12:21:00;3.70;99.90
34985;DHT22;21190;58.750;17.004;2024-02-26T12:23:28;3.70;99.90
34985;DHT22;21190;58.750;17.004;2024-02-26T12:25:59;3.60;99.90
34985;DHT22;21190;58.750;17.004;2024-02-26T12:28:30;3.50;99.90
34985;DHT22;21190;58.750;17.004;2024-02-26T12:30:58;3.50;99.90
34985;DHT22;21190;58.750;17.004;2024-02-26T12:33:28;3.50;99.90
34985;DHT22;21190;58.750;17.004;2024-02-26T12:35:56;3.60;99.90
34985;DHT22;21190;58.750;17.004;2024-02-26T12:38:24;3.60;99.90
34985;DHT22;21190;58.750;17.004;2024-02-26T12:40:51;3.70;99.90
34985;DHT22;21190;58.750;17.004;2024-02-26T12:43:18;3.70;99.90
34985;DHT22;21190;58.750;17.004;2024-02-26T12:45:45;3.70;99.90
34985;DHT22;21190;58.750;17.004;2024-02-26T12:48:14;3.80;99.90
34985;DHT22;21190;58.750;17.004;2024-02-26T12:50:46;3.80;99.90
34985;DHT22;21190;58.750;17.004;2024-02-26T12:53:17;3.90;99.90
34985;DHT22;21190;58.750;17.004;2024-02-26T12:55:44;3.80;99.90
34985;DHT22;21190;58.750;17.004;2024-02-26T12:58:12;3.80;99.90
34985;DHT22;21190;58.750;17.004;2024-02-26T13:00:39;3.80;99.90
34985;DHT22;21190;58.750;17.004;2024-02-26T13:03:08;3.70;99.90
34985;DHT22;21190;58.750;17.004;2024-02-26T13:05:36;3.80;99.90
34985;DHT22;21190;58.750;17.004;2024-02-26T13:08:04;3.80;99.90
34985;DHT22;21190;58.750;17.004;2024-02-26T13:10:35;3.70;99.90
34985;DHT22;21190;58.750;17.004;2024-02-26T13:13:02;3.70;99.90
34985;DHT22;21190;58.750;17.004;2024-02-26T13:15:29;3.80;99.90
34985;DHT22;21190;58.750;17.004;2024-02-26T13:17:57;3.90;99.90
34985;DHT22;21190;58.750;17.004;2024-02-26T13:20:30;4.00;99.90
34985;DHT22;21190;58.750;17.004;2024-02-26T13:23:06;4.00;99.90
34985;DHT22;21190;58.750;17.004;2024-02-26T13:25:34;4.00;99.90
34985;DHT22;21190;58.750;17.004;2024-02-26T13:28:13;4.10;99.90
34985;DHT22;21190;58.750;17.004;2024-02-26T13:30:41;4.20;99.90
34985;DHT22;21190;58.750;17.004;2024-02-26T13:33:12;4.30;99.90
34985;DHT22;21190;58.750;17.004;2024-02-26T13:35:40;4.30;99.90
34985;DHT22;21190;58.750;17.004;2024-02-26T13:38:07;4.40;99.90
34985;DHT22;21190;58.750;17.004;2024-02-26T13:40:35;4.40;99.90
34985;DHT22;21190;58.750;17.004;2024-02-26T13:43:02;4.50;99.90
34985;DHT22;21190;58.750;17.004;2024-02-26T13:45:29;4.60;99.90
34985;DHT22;21190;58.750;17.004;2024-02-26T13:48:08;4.60;99.90
34985;DHT22;21190;58.750;17.004;2024-02-26T13:50:42;4.60;99.90
34985;DHT22;21190;58.750;17.004;2024-02-26T13:53:13;4.60;99.90
34985;DHT22;21190;58.750;17.004;2024-02-26T13:55:41;4.60;99.90
34985;DHT22;21190;58.750;17.004;2024-02-26T13:58:12;4.50;99.90
34985;DHT22;21190;58.750;17.004;2024-02-26T14:00:42;4.50;99.90
34985;DHT22;21190;58.750;17.004;2024-02-26T14:03:10;4.60;99.90
34985;DHT22;21190;58.750;17.004;2024-02-26T14:05:38;4.60;99.90
34985;DHT22;21190;58.750;17.004;2024-02-26T14:08:05;4.60;99.90
34985;DHT22;21190;58.750;17.004;2024-02-26T14:10:33;4.60;99.90
34985;DHT22;21190;58.750;17.004;2024-02-26T14:13:00;4.60;99.90
34985;DHT22;21190;58.750;17.004;2024-02-26T14:15:28;4.60;99.90
34985;DHT22;21190;58.750;17.004;2024-02-26T14:17:56;4.70;99.90
34985;DHT22;21190;58.750;17.004;2024-02-26T14:20:24;4.70;99.90
34985;DHT22;21190;58.750;17.004;2024-02-26T14:22:52;4.70;99.90
34985;DHT22;21190;58.750;17.004;2024-02-26T14:25:21;4.70;99.90
34985;DHT22;21190;58.750;17.004;2024-02-26T14:27:48;4.60;99.90
34985;DHT22;21190;58.750;17.004;2024-02-26T14:30:15;4.50;99.90
34985;DHT22;21190;58.750;17.004;2024-02-26T14:32:42;4.50;99.90
34985;DHT22;21190;58.750;17.004;2024-02-26T14:35:11;4.50;99.90
34985;DHT22;21190;58.750;17.004;2024-02-26T14:37:44;4.50;99.90
34985;DHT22;21190;58.750;17.004;2024-02-26T14:40:14;4.50;99.90
34985;DHT22;21190;58.750;17.004;2024-02-26T14:42:45;4.50;99.90
34985;DHT22;21190;58.750;17.004;2024-02-26T14:45:13;4.50;99.90
34985;DHT22;21190;58.750;17.004;2024-02-26T14:47:41;4.50;99.90
34985;DHT22;21190;58.750;17.004;2024-02-26T14:50:08;4.60;99.90
34985;DHT22;21190;58.750;17.004;2024-02-26T14:52:36;4.50;99.90
34985;DHT22;21190;58.750;17.004;2024-02-26T14:55:03;4.50;99.90
34985;DHT22;21190;58.750;17.004;2024-02-26T14:57:30;4.50;99.90
34985;DHT22;21190;58.750;17.004;2024-02-26T14:59:57;4.50;99.90
34985;DHT22;21190;58.750;17.004;2024-02-26T15:02:25;4.60;99.90
34985;DHT22;21190;58.750;17.004;2024-02-26T15:04:52;4.60;99.90
34985;DHT22;21190;58.750;17.004;2024-02-26T15:07:19;4.60;99.90
34985;DHT22;21190;58.750;17.004;2024-02-26T15:09:47;4.60;99.90
34985;DHT22;21190;58.750;17.004;2024-02-26T15:12:14;4.60;99.90
34985;DHT22;21190;58.750;17.004;2024-02-26T15:14:44;4.50;99.90
34985;DHT22;21190;58.750;17.004;2024-02-26T15:17:12;4.60;99.90
34985;DHT22;21190;58.750;17.004;2024-02-26T15:19:40;4.60;99.90
34985;DHT22;21190;58.750;17.004;2024-02-26T15:22:07;4.70;99.90
34985;DHT22;21190;58.750;17.004;2024-02-26T15:24:34;4.70;99.90
34985;DHT22;21190;58.750;17.004;2024-02-26T15:27:02;4.60;99.90
34985;DHT22;21190;58.750;17.004;2024-02-26T15:29:30;4.50;99.90
34985;DHT22;21190;58.750;17.004;2024-02-26T15:31:57;4.50;99.90
34985;DHT22;21190;58.750;17.004;2024-02-26T15:34:24;4.50;99.90
34985;DHT22;21190;58.750;17.004;2024-02-26T15:36:52;4.50;99.90
34985;DHT22;21190;58.750;17.004;2024-02-26T15:39:19;4.40;99.90
34985;DHT22;21190;58.750;17.004;2024-02-26T15:41:48;4.40;99.90